Del Norte, CO

2:22 PM MST on December 07, 2016 (GMT -0700)
North West of | | Change Station

Elev 7720 ft 37.65 °N, 106.18 °W | Updated 11 seconds ago

Clear
Clear
32.3 °F
Feels Like 32 °F
N
1.0
Wind Variable Wind from NE
Gusts 7.0 mph

Today
High -- | Low -- °F
--% Chance of Precip.
Yesterday
High -- | Low -- °F
Precip. -- in
Pressure 29.97 in
Visibility 10.0 miles
Clouds Clear
Windchill 32 °F
Dew Point 18 °F
Humidity 55%
Rainfall 0.02 in
Snow Depth Not available.
7:07 AM 4:46 PM
First Quarter, 56% visible
METAR K04V 072109Z AUTO 35018G26KT 10SM CLR M03/M20 A2997 RMK AO2
Pressure 29.97 in
Visibility 10.0 miles
Clouds Clear
Windchill 32 °F
Dew Point 18 °F
Humidity 55%
Rainfall 0.02 in
Snow Depth Not available.
7:07 AM 4:46 PM
First Quarter, 56% visible
METAR K04V 072109Z AUTO 35018G26KT 10SM CLR M03/M20 A2997 RMK AO2

10-Day Weather Forecast

Almanac

Astronomy

Dec. 07, 2016 Rise Set
Actual Time
Civil Twilight
Nautical Twilight
Astronomical Twilight
Moon
Length of Visible Light
Length of Day
Tomorrow will be .
, % of the Moon is Illuminated

Today's Extremes

State Highs State Lows

Community

WunderPhotos

Upload Photos

1,956,164 photos uploaded!

WunderBlog® & News

Nearby

Air Quality

  Air Quality AQ Index Pollutant
Not available.

Snow Depth

Station Depth Elevation

Earthquake Activity

City Distance Mag. Time & Date
Minimum magnitude displayed is 2.5.

Coastal Water Temperatures

Place Temperature

Stations

Nearby Weather Stations

Station Location Temp. Windchill Dew Point Humidity Wind Precip. Elev Updated Type
                   

Watches & Warnings

There are currently no watches in effect.